Time;durP1;ratioP1;P1;durP2;ratioP2;P2;SDS_P1;SDS_P2;PMS_P1;PMS_P2;Temp;Humidity;BMP_temperature;BMP_pressure;BME280_temperature;BME280_humidity;BME280_pressure;Samples;Min_cycle;Max_cycle;Signal;HPM_P1;HPM_P2
2022/04/24 00:02:18;;;;;;;4.30;3.10;;;14.90;71.10;;;;;;4974637;28;20030;-72
2022/04/24 00:04:44;;;;;;;4.70;3.35;;;14.90;71.10;;;;;;4974531;28;20035;-73
2022/04/24 00:07:10;;;;;;;4.75;3.28;;;14.90;71.30;;;;;;4974405;28;20035;-72
2022/04/24 00:09:37;;;;;;;6.00;3.70;;;14.80;72.10;;;;;;4957001;28;20404;-72
2022/04/24 00:12:07;;;;;;;5.38;3.67;;;14.80;71.50;;;;;;4974727;28;20530;-72
2022/04/24 00:14:33;;;;;;;4.45;3.55;;;14.80;71.50;;;;;;4974381;28;20713;-73
2022/04/24 00:16:59;;;;;;;6.05;3.40;;;14.80;71.60;;;;;;4974071;28;20035;-72
2022/04/24 00:19:25;;;;;;;4.88;3.50;;;14.70;71.60;;;;;;4974287;28;20503;-73
2022/04/24 00:21:51;;;;;;;4.75;3.63;;;14.80;71.80;;;;;;4974373;28;20502;-72
2022/04/24 00:24:17;;;;;;;4.70;3.35;;;14.70;71.70;;;;;;4974340;28;20034;-73
2022/04/24 00:26:43;;;;;;;4.45;3.30;;;14.70;71.90;;;;;;4974000;28;20039;-72
2022/04/24 00:29:09;;;;;;;5.47;3.60;;;14.70;72.10;;;;;;4956627;28;20044;-72
2022/04/24 00:31:35;;;;;;;4.72;3.17;;;14.70;72.00;;;;;;4973978;28;20041;-73
2022/04/24 00:34:01;;;;;;;4.18;3.10;;;14.60;72.00;;;;;;4974310;28;20117;-72
2022/04/24 00:36:27;;;;;;;4.28;3.55;;;14.60;72.20;;;;;;4973846;28;20046;-73
2022/04/24 00:38:53;;;;;;;6.32;4.10;;;14.60;72.30;;;;;;4973211;28;20050;-72
2022/04/24 00:41:18;;;;;;;4.80;3.67;;;14.50;72.30;;;;;;4974060;28;20570;-72
2022/04/24 00:43:54;;;;;;;4.10;3.30;;;14.50;72.50;;;;;;4973754;28;20031;-72
2022/04/24 00:47:10;;;;;;;5.53;3.80;;;14.40;72.60;;;;;;4973928;28;20126;-72
2022/04/24 00:49:36;;;;;;;6.53;3.47;;;14.40;72.90;;;;;;4973645;28;20093;-73
2022/04/24 00:52:03;;;;;;;5.20;3.70;;;14.40;73.00;;;;;;4956358;28;20133;-72
2022/04/24 00:54:29;;;;;;;5.80;3.58;;;14.30;73.10;;;;;;4973627;28;20555;-72
2022/04/24 00:56:55;;;;;;;4.60;3.70;;;14.30;73.20;;;;;;4973403;28;20135;-72
2022/04/24 00:59:21;;;;;;;6.65;4.07;;;14.30;73.40;;;;;;4973560;28;20483;-72
2022/04/24 01:01:47;;;;;;;5.22;3.92;;;14.20;73.30;;;;;;4973495;28;20035;-73
2022/04/24 01:04:13;;;;;;;4.88;3.72;;;14.20;73.40;;;;;;4973388;28;20042;-72
2022/04/24 01:06:43;;;;;;;4.22;3.40;;;14.20;73.50;;;;;;4973207;28;20431;-72
2022/04/24 01:09:12;;;;;;;3.95;3.45;;;14.20;73.60;;;;;;4973290;28;20035;-72
2022/04/24 01:11:38;;;;;;;4.90;3.92;;;14.10;73.70;;;;;;4973375;28;20027;-72
2022/04/24 01:14:05;;;;;;;5.10;3.83;;;14.10;73.80;;;;;;4973282;28;20031;-72
2022/04/24 01:16:32;;;;;;;6.78;3.83;;;14.10;73.90;;;;;;4973194;28;20022;-72
2022/04/24 01:18:59;;;;;;;5.20;3.92;;;14.10;74.10;;;;;;4973326;28;20066;-72
2022/04/24 01:21:25;;;;;;;5.88;3.95;;;14.10;74.20;;;;;;4973195;28;20031;-72
2022/04/24 01:23:51;;;;;;;5.20;4.47;;;14.00;74.20;;;;;;4972996;28;20033;-72
2022/04/24 01:26:16;;;;;;;5.18;3.95;;;14.00;74.40;;;;;;4955611;28;20042;-73
2022/04/24 01:28:42;;;;;;;6.32;4.75;;;14.00;74.60;;;;;;4972830;28;20031;-72
2022/04/24 01:31:08;;;;;;;7.18;4.15;;;14.00;74.70;;;;;;4973097;28;20423;-72
2022/04/24 01:33:34;;;;;;;6.53;4.78;;;13.90;74.80;;;;;;4972818;28;20035;-72
2022/04/24 01:36:00;;;;;;;5.72;4.38;;;13.90;75.00;;;;;;4972938;28;20034;-73
2022/04/24 01:38:28;;;;;;;6.25;4.57;;;13.80;75.20;;;;;;4972554;28;20023;-73
2022/04/24 01:40:54;;;;;;;6.17;4.50;;;13.80;75.20;;;;;;4972695;28;20046;-72
2022/04/24 01:43:21;;;;;;;4.78;4.07;;;13.80;75.20;;;;;;4972806;28;20045;-72
2022/04/24 01:45:46;;;;;;;5.70;4.40;;;13.70;75.30;;;;;;4972953;28;20038;-72
2022/04/24 01:48:12;;;;;;;6.90;4.93;;;13.80;75.40;;;;;;4955212;28;20088;-73
2022/04/24 01:50:38;;;;;;;8.05;4.65;;;13.80;75.50;;;;;;4972583;28;20495;-72
2022/04/24 01:53:04;;;;;;;7.07;5.13;;;13.70;75.50;;;;;;4972955;28;20414;-72
2022/04/24 01:55:30;;;;;;;6.63;4.80;;;13.70;75.40;;;;;;4972575;28;20034;-72
2022/04/24 01:57:56;;;;;;;7.47;4.72;;;13.70;76.10;;;;;;4972549;28;20023;-72
2022/04/24 02:00:22;;;;;;;7.97;4.97;;;13.70;75.50;;;;;;4972553;28;20042;-72
2022/04/24 02:02:48;;;;;;;7.85;4.63;;;13.60;75.60;;;;;;4972418;28;20078;-73
2022/04/24 02:05:14;;;;;;;5.72;4.63;;;13.60;75.50;;;;;;4972502;28;20103;-72
2022/04/24 02:07:41;;;;;;;5.53;4.57;;;13.60;75.50;;;;;;4972301;28;20035;-72
2022/04/24 02:10:07;;;;;;;7.18;4.68;;;13.60;75.70;;;;;;4972311;28;20031;-72
2022/04/24 02:12:33;;;;;;;6.18;4.45;;;13.50;75.80;;;;;;4972140;28;20027;-72
2022/04/24 02:14:59;;;;;;;6.65;4.85;;;13.50;75.80;;;;;;4972315;28;20037;-72
2022/04/24 02:17:24;;;;;;;6.60;4.95;;;13.50;75.60;;;;;;4972018;28;20081;-72
2022/04/24 02:19:50;;;;;;;6.10;4.72;;;13.50;75.60;;;;;;4972212;28;20097;-72
2022/04/24 02:22:16;;;;;;;5.82;4.80;;;13.50;75.70;;;;;;4972113;28;20502;-72
2022/04/24 02:24:42;;;;;;;6.15;4.63;;;13.40;75.90;;;;;;4972182;28;20038;-73
2022/04/24 02:27:09;;;;;;;7.03;5.07;;;13.40;76.00;;;;;;4971978;28;20456;-72
2022/04/24 02:29:35;;;;;;;8.32;4.75;;;13.40;76.10;;;;;;4972297;28;20046;-72
2022/04/24 02:32:01;;;;;;;7.38;4.90;;;13.40;76.20;;;;;;4972059;28;20556;-72
2022/04/24 02:34:27;;;;;;;6.50;4.97;;;13.30;76.30;;;;;;4972004;28;20034;-72
2022/04/24 02:36:53;;;;;;;8.60;5.03;;;13.30;76.50;;;;;;4954539;28;20034;-72
2022/04/24 02:39:19;;;;;;;6.13;4.30;;;13.30;76.50;;;;;;4972251;28;20035;-72
2022/04/24 02:41:45;;;;;;;5.72;4.65;;;13.30;76.50;;;;;;4986146;23;20498;-69
2022/04/24 02:44:11;;;;;;;8.35;5.00;;;13.20;76.50;;;;;;4972130;28;20034;-70
2022/04/24 02:46:37;;;;;;;7.00;4.87;;;13.10;76.70;;;;;;4971933;28;20495;-71
2022/04/24 02:49:03;;;;;;;5.68;4.82;;;13.20;77.00;;;;;;4972033;28;20034;-69
2022/04/24 02:51:29;;;;;;;6.33;5.20;;;13.10;77.00;;;;;;4971890;28;20031;-69
2022/04/24 02:53:55;;;;;;;6.33;4.83;;;13.10;77.20;;;;;;4972065;28;20031;-70
2022/04/24 02:56:21;;;;;;;6.10;4.90;;;13.10;77.20;;;;;;4972009;28;20031;-70
2022/04/24 02:58:48;;;;;;;5.82;4.80;;;13.10;77.10;;;;;;4954686;28;20037;-70
2022/04/24 03:01:14;;;;;;;7.00;5.30;;;13.10;77.10;;;;;;4971879;28;20031;-70
2022/04/24 03:03:42;;;;;;;7.27;5.27;;;13.10;77.20;;;;;;4975223;28;20066;-70
2022/04/24 03:06:08;;;;;;;7.27;5.30;;;13.00;77.20;;;;;;4975753;28;20114;-70
2022/04/24 03:08:34;;;;;;;8.13;5.30;;;13.00;77.40;;;;;;4975803;28;20407;-70
2022/04/24 03:11:00;;;;;;;6.43;5.17;;;13.00;77.50;;;;;;4975638;28;20467;-70
2022/04/24 03:13:26;;;;;;;6.70;4.90;;;13.00;77.60;;;;;;4975687;28;20215;-70
2022/04/24 03:15:52;;;;;;;6.17;5.13;;;12.90;77.70;;;;;;4975616;28;20498;-68
2022/04/24 03:18:18;;;;;;;6.90;5.40;;;12.90;77.80;;;;;;4975418;28;20022;-69
2022/04/24 03:20:44;;;;;;;7.13;5.43;;;12.90;78.00;;;;;;4975420;28;20050;-70
2022/04/24 03:23:10;;;;;;;6.67;5.30;;;12.80;78.10;;;;;;4975461;28;20550;-69
2022/04/24 03:25:36;;;;;;;10.43;6.50;;;12.80;78.30;;;;;;4975364;28;20034;-70
2022/04/24 03:28:02;;;;;;;7.57;6.00;;;12.80;78.30;;;;;;4957689;28;20130;-70
2022/04/24 03:30:28;;;;;;;8.53;6.23;;;12.80;78.40;;;;;;4957975;28;20049;-69
2022/04/24 03:32:54;;;;;;;11.10;7.07;;;12.80;78.50;;;;;;4957780;28;20428;-70
2022/04/24 03:35:20;;;;;;;7.23;5.80;;;12.70;78.60;;;;;;4975074;28;20038;-70
2022/04/24 03:37:46;;;;;;;7.13;6.13;;;12.70;78.70;;;;;;4975116;28;20031;-71
2022/04/24 03:40:13;;;;;;;8.13;6.30;;;12.70;79.00;;;;;;4974994;28;20498;-68
2022/04/24 03:42:38;;;;;;;8.47;6.10;;;12.60;79.10;;;;;;4974939;28;20031;-69
2022/04/24 03:45:11;;;;;;;7.63;6.00;;;12.60;79.20;;;;;;4975391;28;20031;-69
2022/04/24 03:47:38;;;;;;;10.53;7.20;;;12.60;79.40;;;;;;4974840;28;20042;-70
2022/04/24 03:50:05;;;;;;;8.40;6.17;;;12.60;79.40;;;;;;4974821;28;20471;-70
2022/04/24 03:52:31;;;;;;;9.20;6.63;;;12.60;79.50;;;;;;4974805;28;20038;-70
2022/04/24 03:54:58;;;;;;;8.33;6.27;;;12.60;79.40;;;;;;4974804;28;20077;-70
2022/04/24 03:57:24;;;;;;;9.53;7.63;;;12.60;79.40;;;;;;4974693;28;20039;-70
2022/04/24 03:59:51;;;;;;;9.47;6.90;;;12.60;79.70;;;;;;4974792;28;20488;-70
2022/04/24 04:02:17;;;;;;;9.90;6.93;;;12.60;79.50;;;;;;4974605;28;20116;-69
2022/04/24 04:04:42;;;;;;;10.00;6.50;;;12.60;79.70;;;;;;4974874;28;20058;-70
2022/04/24 04:07:08;;;;;;;9.80;7.43;;;12.50;79.90;;;;;;4974470;28;20061;-69
2022/04/24 04:09:34;;;;;;;10.83;6.87;;;12.50;80.10;;;;;;4974462;28;20037;-69
2022/04/24 04:12:01;;;;;;;9.17;6.70;;;12.50;80.20;;;;;;4974547;28;20027;-71
2022/04/24 04:14:27;;;;;;;9.37;6.50;;;12.50;80.40;;;;;;4973347;28;20027;-70
2022/04/24 04:16:54;;;;;;;7.67;6.20;;;12.40;80.50;;;;;;4974297;28;20388;-71
2022/04/24 04:19:20;;;;;;;10.53;6.80;;;12.40;80.70;;;;;;4974398;28;20395;-70
2022/04/24 04:21:46;;;;;;;9.47;7.27;;;12.40;80.70;;;;;;4974458;28;20034;-70
2022/04/24 04:24:12;;;;;;;9.97;6.33;;;12.40;80.80;;;;;;4974283;28;20507;-70
2022/04/24 04:26:38;;;;;;;9.33;6.80;;;12.40;80.80;;;;;;4974068;28;20022;-70
2022/04/24 04:29:04;;;;;;;9.20;6.60;;;12.40;81.00;;;;;;4974135;28;20414;-70
2022/04/24 04:31:30;;;;;;;10.07;7.50;;;12.40;81.20;;;;;;4974084;28;20037;-72
2022/04/24 04:33:56;;;;;;;11.40;7.03;;;12.40;81.20;;;;;;4974178;28;20093;-70
2022/04/24 04:36:22;;;;;;;8.73;6.80;;;12.40;82.10;;;;;;4974312;28;20117;-69
2022/04/24 04:38:48;;;;;;;9.27;6.77;;;12.30;81.40;;;;;;4973980;28;20114;-69
2022/04/24 04:41:14;;;;;;;8.80;6.50;;;12.30;81.60;;;;;;4974006;28;20031;-70
2022/04/24 04:43:40;;;;;;;8.73;6.60;;;12.30;81.70;;;;;;4940617;28;20078;-69
2022/04/24 04:46:06;;;;;;;12.37;6.90;;;12.30;81.80;;;;;;4973824;28;20055;-71
2022/04/24 04:48:32;;;;;;;11.67;7.80;;;12.30;81.90;;;;;;4956367;28;20419;-69
2022/04/24 04:50:58;;;;;;;8.93;6.40;;;12.30;82.00;;;;;;4973931;28;20039;-69
2022/04/24 04:53:24;;;;;;;8.77;6.50;;;12.30;81.90;;;;;;4973816;28;20045;-69
2022/04/24 04:55:51;;;;;;;10.93;6.77;;;12.30;82.00;;;;;;4956539;28;20027;-69
2022/04/24 04:58:17;;;;;;;8.23;6.17;;;12.30;82.00;;;;;;4956525;28;20122;-69
2022/04/24 05:00:43;;;;;;;9.20;5.70;;;12.30;82.00;;;;;;4973582;28;20114;-70
2022/04/24 05:03:09;;;;;;;7.97;5.97;;;12.30;82.00;;;;;;4973465;28;20058;-69
2022/04/24 05:05:35;;;;;;;9.93;5.93;;;12.30;82.00;;;;;;4973857;28;20062;-70
2022/04/24 05:08:02;;;;;;;8.37;5.83;;;12.30;82.70;;;;;;4973355;28;20038;-70
2022/04/24 05:10:28;;;;;;;9.43;5.60;;;12.30;82.20;;;;;;4973784;28;20431;-70
2022/04/24 05:12:54;;;;;;;10.60;6.60;;;12.20;82.20;;;;;;4973202;28;20035;-70
2022/04/24 05:15:21;;;;;;;10.20;6.67;;;12.20;82.10;;;;;;4973331;28;20365;-70
2022/04/24 05:17:47;;;;;;;8.87;6.53;;;12.20;82.20;;;;;;4973429;28;20041;-70
2022/04/24 05:20:13;;;;;;;7.70;5.90;;;12.20;82.40;;;;;;4955953;28;20063;-70
2022/04/24 05:22:41;;;;;;;11.07;6.00;;;12.20;82.30;;;;;;4973221;28;20069;-70
2022/04/24 05:25:09;;;;;;;9.23;5.73;;;12.20;82.30;;;;;;4973265;28;20023;-70
2022/04/24 05:27:38;;;;;;;7.00;5.43;;;12.20;82.50;;;;;;4972869;28;20042;-70
2022/04/24 05:30:07;;;;;;;;;;;12.20;82.30;;;;;;4973601;28;20041;-70
2022/04/24 05:32:46;;;;;;;8.00;5.70;;;12.20;82.30;;;;;;4972950;28;19972;-70
2022/04/24 05:35:12;;;;;;;8.13;5.57;;;12.30;82.40;;;;;;4973069;28;20293;-70
2022/04/24 05:37:40;;;;;;;7.80;5.63;;;12.30;82.30;;;;;;4972586;28;20408;-70
2022/04/24 05:40:06;;;;;;;8.60;5.50;;;12.30;82.40;;;;;;4972925;28;20029;-70
2022/04/24 05:42:33;;;;;;;8.37;5.97;;;12.30;82.60;;;;;;4955482;28;20034;-70
2022/04/24 05:45:04;;;;;;;7.33;5.30;;;12.30;82.40;;;;;;4972862;28;20496;-70
2022/04/24 05:47:30;;;;;;;9.57;5.63;;;12.30;82.60;;;;;;4972585;28;20487;-70
2022/04/24 05:49:56;;;;;;;9.70;5.70;;;12.30;82.60;;;;;;4973022;28;20030;-70
2022/04/24 05:52:23;;;;;;;7.27;5.60;;;12.30;82.70;;;;;;4972695;28;20041;-70
2022/04/24 05:54:49;;;;;;;10.70;5.60;;;12.30;82.20;;;;;;4955393;28;20114;-70
2022/04/24 05:57:15;;;;;;;11.20;5.67;;;12.30;82.20;;;;;;4972360;28;20587;-70
2022/04/24 05:59:41;;;;;;;6.97;5.07;;;12.30;82.40;;;;;;4955656;28;20294;-70
2022/04/24 06:02:07;;;;;;;8.73;5.70;;;12.30;82.30;;;;;;4972820;28;20499;-70
2022/04/24 06:04:33;;;;;;;9.50;5.33;;;12.30;82.30;;;;;;4972509;28;20058;-70
2022/04/24 06:06:59;;;;;;;10.50;5.70;;;12.30;82.30;;;;;;4972301;28;20038;-70
2022/04/24 06:09:25;;;;;;;7.87;5.20;;;12.40;82.40;;;;;;4972310;28;20031;-70
2022/04/24 06:11:53;;;;;;;10.50;5.67;;;12.40;82.10;;;;;;4955184;28;20109;-70
2022/04/24 06:14:19;;;;;;;9.20;5.00;;;12.30;82.30;;;;;;4972492;28;20045;-70
2022/04/24 06:16:44;;;;;;;7.13;5.30;;;12.40;82.20;;;;;;4972125;28;20031;-70
2022/04/24 06:19:10;;;;;;;6.77;5.13;;;12.40;82.20;;;;;;4954933;28;20514;-70
2022/04/24 06:21:36;;;;;;;7.07;5.60;;;12.40;82.00;;;;;;4972193;28;20035;-70
2022/04/24 06:24:02;;;;;;;8.00;5.57;;;12.40;81.70;;;;;;4972304;28;20047;-70
2022/04/24 06:26:28;;;;;;;7.87;5.60;;;12.40;81.60;;;;;;4972057;28;20038;-70
2022/04/24 06:28:54;;;;;;;8.20;5.37;;;12.50;81.50;;;;;;4972146;28;20122;-70
2022/04/24 06:31:20;;;;;;;7.17;5.50;;;12.50;81.70;;;;;;4955088;28;20035;-70
2022/04/24 06:33:46;;;;;;;7.40;5.20;;;12.50;81.70;;;;;;4972157;28;20365;-70
2022/04/24 06:36:12;;;;;;;6.73;5.20;;;12.60;81.50;;;;;;4954808;28;20082;-70
2022/04/24 06:38:38;;;;;;;8.13;5.73;;;12.60;81.60;;;;;;4971420;28;20035;-70
2022/04/24 06:41:03;;;;;;;8.80;5.50;;;12.60;81.70;;;;;;4972074;28;20142;-70
2022/04/24 06:43:29;;;;;;;7.30;5.37;;;12.60;81.60;;;;;;4972220;28;20388;-71
2022/04/24 06:45:55;;;;;;;6.83;5.03;;;12.60;81.20;;;;;;4954845;28;20035;-71
2022/04/24 06:48:21;;;;;;;10.27;6.60;;;12.70;81.40;;;;;;4971972;28;20521;-71
2022/04/24 06:50:47;;;;;;;9.70;6.47;;;12.70;81.20;;;;;;4972009;28;20050;-71
2022/04/24 06:53:18;;;;;;;7.77;5.43;;;12.70;81.30;;;;;;4972279;28;20027;-71
2022/04/24 06:55:45;;;;;;;9.10;5.60;;;12.80;81.40;;;;;;4971923;28;20027;-71
2022/04/24 06:58:14;;;;;;;8.37;5.80;;;12.80;81.40;;;;;;4971827;28;20102;-71
2022/04/24 07:00:45;;;;;;;9.05;6.35;;;12.80;81.30;;;;;;4972677;28;20345;-71
2022/04/24 07:03:23;;;;;;;9.97;6.20;;;12.90;81.20;;;;;;4971852;28;20089;-70
2022/04/24 07:05:57;;;;;;;8.97;6.20;;;12.90;80.90;;;;;;4954886;28;20106;-71
2022/04/24 07:08:24;;;;;;;8.40;5.90;;;12.90;81.00;;;;;;4971633;28;20038;-71
2022/04/24 07:10:52;;;;;;;7.97;5.83;;;12.90;80.60;;;;;;4971751;28;20089;-71
2022/04/24 07:13:18;;;;;;;7.68;5.40;;;13.00;80.20;;;;;;4971846;28;20023;-70
2022/04/24 07:15:45;;;;;;;7.67;5.30;;;13.00;80.40;;;;;;4954501;28;20023;-70
2022/04/24 07:18:11;;;;;;;8.70;6.00;;;13.00;80.60;;;;;;4971465;28;20428;-70
2022/04/24 07:20:37;;;;;;;8.37;6.10;;;13.00;80.50;;;;;;4971727;28;20065;-70
2022/04/24 07:23:05;;;;;;;10.30;6.70;;;13.00;80.30;;;;;;4954373;28;20319;-70
2022/04/24 07:25:40;;;;;;;11.90;7.03;;;13.00;80.30;;;;;;4971582;28;20483;-70
2022/04/24 07:28:18;;;;;;;10.33;6.13;;;13.10;79.80;;;;;;4971518;28;20039;-70
2022/04/24 07:30:45;;;;;;;8.40;5.87;;;13.10;80.10;;;;;;4971793;28;20031;-70
2022/04/24 07:33:11;;;;;;;10.30;6.20;;;13.10;80.40;;;;;;4971636;28;20034;-70
2022/04/24 07:35:39;;;;;;;8.67;6.10;;;13.10;79.80;;;;;;4971660;28;20416;-70
2022/04/24 07:38:05;;;;;;;8.47;5.87;;;13.20;79.70;;;;;;4971503;28;20061;-70
2022/04/24 07:40:32;;;;;;;9.13;6.43;;;13.20;80.10;;;;;;4971824;28;20385;-70
2022/04/24 07:43:00;;;;;;;8.40;6.10;;;13.20;80.30;;;;;;4954278;28;20173;-70
2022/04/24 07:45:34;;;;;;;10.00;6.63;;;13.20;80.10;;;;;;4971509;28;20468;-70
2022/04/24 07:48:01;;;;;;;9.20;6.47;;;13.20;80.00;;;;;;4954640;28;20046;-70
2022/04/24 07:50:30;;;;;;;8.27;6.27;;;13.30;80.10;;;;;;4974969;28;20026;-70
2022/04/24 07:52:57;;;;;;;10.82;6.60;;;13.30;79.90;;;;;;4975006;28;20026;-70
2022/04/24 07:55:24;;;;;;;9.47;6.00;;;13.30;79.80;;;;;;4974943;28;20031;-70
2022/04/24 07:57:53;;;;;;;9.73;6.17;;;13.40;79.90;;;;;;4974630;28;20101;-70
2022/04/24 08:00:21;;;;;;;8.13;6.15;;;13.40;79.40;;;;;;4974777;28;20480;-70
2022/04/24 08:03:00;;;;;;;9.97;6.27;;;13.40;79.20;;;;;;4975018;28;20456;-70
2022/04/24 08:05:31;;;;;;;10.93;6.60;;;13.40;79.20;;;;;;4974651;28;20353;-70
2022/04/24 08:07:59;;;;;;;7.88;6.00;;;13.50;79.00;;;;;;4974457;28;20081;-70
2022/04/24 08:10:28;;;;;;;12.47;6.73;;;13.50;78.80;;;;;;4974440;28;20155;-70
2022/04/24 08:12:54;;;;;;;8.68;5.93;;;13.60;78.90;;;;;;4974520;28;20049;-70
2022/04/24 08:15:20;;;;;;;10.88;6.30;;;13.60;78.80;;;;;;4974510;28;20023;-70
2022/04/24 08:17:46;;;;;;;10.43;6.88;;;13.60;79.10;;;;;;4974228;28;20053;-70
2022/04/24 08:20:14;;;;;;;13.07;5.80;;;13.60;79.50;;;;;;4974390;28;20046;-71
2022/04/24 08:22:45;;;;;;;8.63;6.20;;;13.70;79.50;;;;;;4974282;28;20089;-70
2022/04/24 08:25:17;;;;;;;9.15;6.35;;;13.80;78.70;;;;;;4957138;28;20035;-71
2022/04/24 08:27:43;;;;;;;8.57;6.30;;;13.80;78.30;;;;;;4974215;28;20496;-71
2022/04/24 08:30:11;;;;;;;8.77;6.55;;;13.80;77.90;;;;;;4974366;28;20135;-71
2022/04/24 08:32:38;;;;;;;9.68;6.70;;;13.90;77.70;;;;;;4974313;28;20507;-70
2022/04/24 08:35:06;;;;;;;10.70;7.13;;;13.90;77.80;;;;;;4973973;28;20054;-70
2022/04/24 08:37:32;;;;;;;8.18;7.05;;;14.00;77.50;;;;;;4974168;28;20085;-70
2022/04/24 08:39:59;;;;;;;9.98;6.35;;;14.00;77.20;;;;;;4974145;28;20035;-70
2022/04/24 08:42:26;;;;;;;10.95;7.18;;;14.00;77.30;;;;;;4973849;28;20035;-71
2022/04/24 08:44:57;;;;;;;10.20;7.43;;;14.10;77.40;;;;;;4974140;28;20037;-70
2022/04/24 08:47:25;;;;;;;11.52;7.25;;;14.10;77.20;;;;;;4956837;28;20039;-70
2022/04/24 08:49:56;;;;;;;14.55;10.60;;;14.10;77.20;;;;;;4973689;28;20512;-71
2022/04/24 08:52:23;;;;;;;11.73;6.75;;;14.20;77.30;;;;;;4973825;28;20400;-70
2022/04/24 08:54:51;;;;;;;14.10;7.55;;;14.20;77.50;;;;;;4973939;28;20035;-70
2022/04/24 08:57:18;;;;;;;10.93;6.90;;;14.20;77.40;;;;;;4973934;28;20026;-69
2022/04/24 08:59:44;;;;;;;9.45;6.28;;;14.30;77.30;;;;;;4973147;28;20089;-71
2022/04/24 09:02:10;;;;;;;10.48;7.30;;;14.30;77.40;;;;;;4973599;28;20030;-70
2022/04/24 09:04:38;;;;;;;10.40;7.15;;;14.30;76.50;;;;;;4973661;28;20042;-70
2022/04/24 09:07:07;;;;;;;11.95;7.10;;;14.40;76.40;;;;;;4973333;28;20062;-72
2022/04/24 09:09:53;;;;;;;10.48;6.90;;;14.40;77.10;;;;;;4973381;28;20031;-71
2022/04/24 09:12:28;;;;;;;9.75;6.70;;;14.40;76.30;;;;;;4973373;28;20504;-70
2022/04/24 09:14:58;;;;;;;9.93;7.80;;;14.40;76.40;;;;;;4973454;28;20034;-71
2022/04/24 09:17:29;;;;;;;10.65;7.07;;;14.50;76.10;;;;;;4973290;28;20041;-71
2022/04/24 09:19:57;;;;;;;11.45;7.07;;;14.60;75.70;;;;;;4973333;28;20030;-71
2022/04/24 09:22:23;;;;;;;9.25;6.72;;;14.60;75.60;;;;;;4973211;28;20466;-71
2022/04/24 09:24:59;;;;;;;11.88;6.70;;;14.60;75.50;;;;;;4973330;28;20427;-71
2022/04/24 09:27:27;;;;;;;12.23;7.18;;;14.60;75.60;;;;;;4972935;28;20496;-71
2022/04/24 09:30:02;;;;;;;9.27;7.13;;;14.70;75.70;;;;;;4955927;28;20042;-71
2022/04/24 09:32:30;;;;;;;9.10;6.90;;;14.70;75.80;;;;;;4973052;28;20038;-71
2022/04/24 09:34:57;;;;;;;10.77;7.55;;;14.70;75.60;;;;;;4973132;28;20496;-71
2022/04/24 09:37:24;;;;;;;13.60;7.53;;;14.80;75.50;;;;;;4972879;28;20027;-71
2022/04/24 09:39:52;;;;;;;10.95;7.38;;;14.90;75.20;;;;;;4973044;28;20039;-71
2022/04/24 09:42:19;;;;;;;9.77;7.38;;;14.90;74.80;;;;;;4972711;28;20340;-69
2022/04/24 09:44:46;;;;;;;10.00;6.70;;;15.00;74.80;;;;;;4973072;28;20510;-71
2022/04/24 09:47:13;;;;;;;11.75;6.85;;;15.00;75.00;;;;;;4939219;28;20043;-71
2022/04/24 09:49:46;;;;;;;9.55;6.78;;;15.00;74.90;;;;;;4972801;28;20031;-70
2022/04/24 09:52:14;;;;;;;13.30;7.38;;;15.00;75.00;;;;;;4972597;28;20030;-70
2022/04/24 09:54:45;;;;;;;9.25;6.60;;;15.10;75.10;;;;;;4972786;28;20023;-70
2022/04/24 09:57:13;;;;;;;10.25;7.90;;;15.10;74.50;;;;;;4972534;28;20023;-70
2022/04/24 09:59:41;;;;;;;10.68;7.30;;;15.20;73.60;;;;;;4972336;28;20555;-71
2022/04/24 10:02:08;;;;;;;9.48;6.97;;;15.20;74.00;;;;;;4972551;28;20070;-71
2022/04/24 10:04:36;;;;;;;8.90;6.65;;;15.20;74.90;;;;;;4972624;28;20078;-70
2022/04/24 10:07:10;;;;;;;9.85;7.43;;;15.20;74.90;;;;;;4972192;28;20031;-70
2022/04/24 10:09:38;;;;;;;9.93;7.97;;;15.30;74.40;;;;;;4972494;28;20030;-70
2022/04/24 10:12:07;;;;;;;10.45;7.28;;;15.30;74.10;;;;;;4954505;28;20046;-71
2022/04/24 10:14:54;;;;;;;9.60;7.60;;;15.40;73.80;;;;;;4972583;28;20023;-71
2022/04/24 10:17:43;;;;;;;13.77;7.93;;;15.40;73.70;;;;;;4972297;28;20113;-70
2022/04/24 10:20:52;;;;;;;11.02;7.53;;;15.40;73.40;;;;;;4972288;28;20479;-70
2022/04/24 10:23:28;;;;;;;;;;;15.50;72.40;;;;;;4972753;28;20031;-71
2022/04/24 10:25:54;;;;;;;10.70;7.20;;;15.50;71.90;;;;;;4972211;28;19921;-69
2022/04/24 10:28:21;;;;;;;9.77;6.93;;;15.60;71.90;;;;;;4954906;28;20034;-72
2022/04/24 10:31:00;;;;;;;10.35;7.47;;;15.60;72.10;;;;;;4972113;28;20031;-70
2022/04/24 10:33:28;;;;;;;8.85;6.95;;;15.60;72.30;;;;;;4972137;28;20027;-70
2022/04/24 10:36:17;;;;;;;11.43;8.00;;;15.60;72.90;;;;;;4972170;28;20110;-70
2022/04/24 10:39:13;;;;;;;9.13;7.30;;;15.60;72.40;;;;;;4955028;28;20057;-72
2022/04/24 10:41:39;;;;;;;10.68;6.93;;;15.70;72.50;;;;;;4972134;28;20121;-69
2022/04/24 10:44:12;;;;;;;8.95;6.68;;;15.80;71.60;;;;;;4972399;28;20066;-70
2022/04/24 10:46:42;;;;;;;9.95;6.93;;;15.80;71.60;;;;;;4971787;28;20480;-71
2022/04/24 10:49:12;;;;;;;11.85;7.05;;;15.80;71.20;;;;;;4954653;28;20034;-71
2022/04/24 10:51:41;;;;;;;8.75;6.40;;;15.90;70.60;;;;;;4955166;28;20315;-70
2022/04/24 10:54:08;;;;;;;10.95;6.80;;;15.90;70.80;;;;;;4972182;28;20022;-70
2022/04/24 10:56:36;;;;;;;8.50;6.88;;;15.90;71.10;;;;;;4954460;28;20027;-69
2022/04/24 10:59:10;;;;;;;13.17;6.47;;;16.00;70.50;;;;;;4954795;28;20030;-71
2022/04/24 11:01:40;;;;;;;10.52;6.85;;;16.00;70.90;;;;;;4972007;28;20038;-70
2022/04/24 11:04:10;;;;;;;9.15;6.68;;;16.00;70.50;;;;;;4972047;28;20110;-69
2022/04/24 11:06:37;;;;;;;8.80;6.80;;;16.10;71.00;;;;;;4971760;28;20035;-70
2022/04/24 11:09:11;;;;;;;8.23;6.10;;;16.10;70.30;;;;;;4971805;28;20026;-70
2022/04/24 11:11:56;;;;;;;7.95;5.72;;;16.10;71.00;;;;;;4971745;28;20038;-70
2022/04/24 11:14:28;;;;;;;8.98;5.65;;;16.20;71.00;;;;;;4954789;28;20480;-70
2022/04/24 11:16:59;;;;;;;9.52;6.68;;;16.20;69.20;;;;;;4971672;28;20408;-70
2022/04/24 11:19:35;;;;;;;9.65;6.80;;;16.30;69.10;;;;;;4954466;28;20096;-71
2022/04/24 11:22:05;;;;;;;7.88;5.97;;;16.30;69.30;;;;;;4954481;28;20617;-71
2022/04/24 11:24:34;;;;;;;10.05;7.03;;;16.30;69.00;;;;;;4974900;28;20043;-70
2022/04/24 11:27:11;;;;;;;8.20;6.15;;;16.40;68.60;;;;;;4975418;28;20030;-70
2022/04/24 11:29:38;;;;;;;8.00;6.30;;;16.40;68.70;;;;;;4975590;28;20035;-70
2022/04/24 11:32:08;;;;;;;6.85;5.47;;;16.40;68.40;;;;;;4975479;28;20026;-70
2022/04/24 11:34:35;;;;;;;7.03;5.07;;;16.40;68.50;;;;;;4975335;28;20109;-71
2022/04/24 11:37:02;;;;;;;7.15;5.50;;;16.50;68.20;;;;;;4975504;28;20054;-70
2022/04/24 11:39:29;;;;;;;9.43;6.40;;;16.50;68.50;;;;;;4942132;28;20112;-70
2022/04/24 11:42:00;;;;;;;7.13;6.00;;;16.60;67.40;;;;;;4975105;28;20034;-70
2022/04/24 11:50:13;;;;;;;7.25;5.40;;;16.80;66.80;;;;;;4975069;28;20110;-70
2022/04/24 11:52:48;;;;;;;8.38;6.00;;;16.80;65.50;;;;;;4974956;28;20050;-69
2022/04/24 11:55:20;;;;;;;8.32;6.25;;;16.70;66.10;;;;;;4974879;28;20030;-71
2022/04/24 11:57:57;;;;;;;7.47;5.70;;;16.70;65.30;;;;;;4957368;28;20023;-71
2022/04/24 12:00:37;;;;;;;8.40;5.10;;;16.70;65.80;;;;;;4974756;28;20398;-71
2022/04/24 12:03:05;;;;;;;6.80;5.15;;;16.70;66.30;;;;;;4974744;28;20085;-71
2022/04/24 12:05:32;;;;;;;11.00;5.82;;;16.80;66.90;;;;;;4957314;28;20112;-70
2022/04/24 12:07:59;;;;;;;7.28;5.63;;;16.90;65.90;;;;;;4974571;28;20117;-69
2022/04/24 12:10:26;;;;;;;7.63;5.45;;;16.90;64.30;;;;;;4974650;28;20066;-70
2022/04/24 12:12:53;;;;;;;6.85;5.60;;;16.90;63.80;;;;;;4974989;28;20334;-70
2022/04/24 12:15:22;;;;;;;7.25;5.70;;;16.80;64.00;;;;;;4974573;28;20019;-69
2022/04/24 12:17:49;;;;;;;9.25;6.00;;;16.70;65.00;;;;;;4974368;28;20069;-69
2022/04/24 12:20:15;;;;;;;8.52;5.57;;;16.70;65.30;;;;;;4974488;28;20035;-69
2022/04/24 12:22:41;;;;;;;7.25;5.50;;;16.70;65.30;;;;;;4957248;28;20034;-69
2022/04/24 12:25:09;;;;;;;6.90;5.07;;;16.70;65.40;;;;;;4974793;28;20027;-70
2022/04/24 12:27:36;;;;;;;6.28;4.47;;;16.70;64.80;;;;;;4974153;28;20050;-69
2022/04/24 12:30:09;;;;;;;6.57;4.70;;;16.70;64.60;;;;;;4956867;28;20089;-70
2022/04/24 12:32:36;;;;;;;6.50;4.35;;;16.80;62.70;;;;;;4974107;28;20055;-70
2022/04/24 12:35:02;;;;;;;7.90;4.47;;;16.70;62.70;;;;;;4956369;28;20113;-70
2022/04/24 12:37:34;;;;;;;8.15;5.00;;;16.70;62.80;;;;;;4974070;28;20022;-70
2022/04/24 12:40:01;;;;;;;6.50;4.95;;;16.70;63.90;;;;;;4956791;28;20403;-70
2022/04/24 12:42:27;;;;;;;6.78;4.82;;;16.70;64.20;;;;;;4956512;28;20042;-70
2022/04/24 12:44:54;;;;;;;7.28;5.72;;;16.80;64.50;;;;;;4974463;28;20042;-70
2022/04/24 12:47:21;;;;;;;8.93;5.43;;;16.80;64.50;;;;;;4973725;28;20034;-70
2022/04/24 12:49:48;;;;;;;7.03;5.43;;;16.80;64.40;;;;;;4973714;28;20113;-70
2022/04/24 12:52:14;;;;;;;8.50;5.15;;;16.80;64.40;;;;;;4973990;28;20033;-70
2022/04/24 12:54:41;;;;;;;8.05;5.30;;;16.70;64.70;;;;;;4973733;28;20026;-70
2022/04/24 12:57:08;;;;;;;8.32;4.97;;;16.70;65.80;;;;;;4973712;28;20046;-69